Terminal Aerodrome Forecast
Issued by NWS Billings, MT

Home | Current Version | Previous Version | Graphics & Text | Print | Product List | Glossary On
Versions: 1 2 3 4 5 6 7 8 9 10 11 12 13 14 15 16 17 18 19 20 21 22 23 24 25 26 27 28 29 30 31 32 33 34
427
FTUS45 KBYZ 012339
TAFMLS
TAF
KMLS 012339Z 0200/0224 VRB05KT P6SM SCT025 OVC080
     FM020900 28006KT P6SM SCT030 BKN050
     FM021200 27008KT 6SM -SN BKN002 OVC004
     FM021800 25006KT P6SM FEW004 SCT050=

USA.gov is the U.S. government's official web portal to all federal, state and local government web resources and services.